Terminal Aerodrome Forecast
Issued by NWS Atlanta, GA

Home | Current Version | Previous Version | Text Only | Print | Product List | Glossary On
Versions: 1 2 3 4 5 6 7 8 9 10 11 12 13 14 15
000
FTUS42 KFFC 050520
TAFCSG
TAF
KCSG 050520Z 0506/0606 05003KT 5SM -RADZ BR OVC006
     FM050900 03003KT 3SM -RADZ BR OVC003
     FM051500 05004KT 3SM -RA BR OVC004
     FM051800 06006KT 5SM -RA BR OVC006
     FM060200 11007KT 5SM -SHRA BR OVC006 PROB30 0602/0606 3SM -TSRA
      BR OVC008CB=

USA.gov is the U.S. government's official web portal to all federal, state and local government web resources and services.